This is the latest recevied weather packets stored in our database for station/object W0BJ-1. If no packets are shown the sender has not sent any weather packets the latest 10 day(s).
| Time | Temp. | Humidity | Pressure | Rain* | Wind** | Luminosity | Snow |
|---|---|---|---|---|---|---|---|
| 1777475442 | 13.89° C | 63% | 1018.2 hPa | 0 mm | - | 679 W/m² | - |
| 1777475139 | 13.89° C | 65% | 1018.2 hPa | 0 mm | - | 663 W/m² | - |
| 1777474850 | 13.33° C | 65% | 1018.1 hPa | 0 mm | - | 650 W/m² | - |
| 1777467938 | 10.56° C | 78% | 1017.5 hPa | 0 mm | - | 236 W/m² | - |
| 1777465538 | 8.89° C | 82% | 1016.8 hPa | 0 mm | - | 42 W/m² | - |
| 1777465238 | 8.89° C | 83% | 1016.9 hPa | 0 mm | - | 105 W/m² | - |
| 1777464640 | 8.33° C | 83% | 1016.5 hPa | 0 mm | - | 56 W/m² | - |
| 1777464053 | 8.33° C | 84% | 1016.5 hPa | 0 mm | - | 32 W/m² | - |
| 1777462837 | 8.33° C | 84% | 1016.3 hPa | 0 mm | - | 25 W/m² | - |
| 1777460744 | 7.78° C | 83% | 1015.9 hPa | 0 mm | - | 0 W/m² | - |
| 1777459838 | 8.33° C | 83% | 1015.7 hPa | 0 mm | - | 0 W/m² | - |
| 1777458661 | 8.33° C | 83% | 1015.6 hPa | 0 mm | - | 0 W/m² | - |
| 1777457753 | 8.33° C | 84% | 1015.7 hPa | 0 mm | - | 0 W/m² | - |
| 1777457438 | 8.33° C | 84% | 1015.9 hPa | 0 mm | - | 0 W/m² | - |
| 1777457141 | 8.33° C | 84% | 1015.8 hPa | 0 mm | - | 0 W/m² | - |
| 1777456543 | 8.89° C | 84% | 1015.9 hPa | 0 mm | - | 0 W/m² | - |
| 1777455952 | 8.89° C | 84% | 1015.9 hPa | 0 mm | - | 0 W/m² | - |
| 1777454152 | 9.44° C | 86% | 1015.6 hPa | 0 mm | - | 0 W/m² | - |
| 1777453251 | 9.44° C | 87% | 1015.3 hPa | 0 mm | - | 0 W/m² | - |
| 1777451739 | 10° C | 89% | 1015 hPa | 0 mm | - | 0 W/m² | - |
| 1777450242 | 10.56° C | 90% | 1014.8 hPa | 0 mm | - | 0 W/m² | - |
| 1777449653 | 11.11° C | 91% | 1014.9 hPa | 0 mm | - | 0 W/m² | - |
| 1777447847 | 11.67° C | 91% | 1014.7 hPa | 0 mm | - | 0 W/m² | - |
| 1777446637 | 11.67° C | 91% | 1014.8 hPa | 0 mm | - | 0 W/m² | - |
| 1777446064 | 11.67° C | 91% | 1015 hPa | 0 mm | - | 0 W/m² | - |
* Rain latest hour (hover to see other rain measurements)
** Current wind speed in m/s (hover to see current wind gust speed)